createdAt,value
2018-08-10T00:00:59.233Z,63.99
2018-08-10T00:05:42.715Z,64.78
2018-08-10T00:10:25.927Z,62.98
2018-08-10T00:15:10.841Z,64.99
2018-08-10T00:19:54.342Z,63.99
2018-08-10T00:24:37.860Z,64.80
2018-08-10T00:29:21.265Z,64.47
2018-08-10T00:34:04.404Z,64.98
2018-08-10T00:38:47.985Z,63.86
2018-08-10T00:43:34.606Z,65.07
2018-08-10T00:48:18.101Z,65.07
2018-08-10T00:53:02.716Z,64.44
2018-08-10T00:57:46.921Z,63.96
2018-08-10T01:02:30.472Z,64.73
2018-08-10T01:07:13.816Z,64.56
2018-08-10T01:12:00.860Z,64.64
2018-08-10T01:16:44.309Z,64.95
2018-08-10T01:21:27.850Z,64.24
2018-08-10T01:26:11.200Z,65.08
2018-08-10T01:30:55.625Z,64.87
2018-08-10T01:35:39.030Z,64.95
2018-08-10T01:40:22.393Z,64.27
2018-08-10T01:45:08.044Z,64.66
2018-08-10T01:49:51.498Z,65.20
2018-08-10T01:54:35.097Z,63.62
2018-08-10T01:59:18.350Z,63.72
2018-08-10T02:04:04.833Z,64.08
2018-08-10T02:08:48.313Z,64.06
2018-08-10T02:13:31.627Z,63.37
2018-08-10T02:18:14.992Z,64.24
2018-08-10T02:22:58.334Z,64.34
2018-08-10T02:27:43.723Z,64.37
2018-08-10T02:32:27.133Z,65.08
2018-08-10T02:37:10.612Z,65.56
2018-08-10T02:41:54.261Z,65.56
2018-08-10T02:46:37.697Z,64.87
2018-08-10T02:51:21.278Z,65.00
2018-08-10T02:56:04.581Z,65.53
2018-08-10T03:00:49.146Z,65.41
2018-08-10T03:05:32.525Z,66.34
2018-08-10T03:10:16.082Z,65.57
2018-08-10T03:14:59.459Z,66.41
2018-08-10T03:19:42.838Z,65.79
2018-08-10T03:24:29.909Z,65.31
2018-08-10T03:29:13.275Z,65.54
2018-08-10T03:34:00.252Z,65.23
2018-08-10T03:38:43.537Z,66.43
2018-08-10T03:43:31.154Z,65.62
2018-08-10T03:48:14.603Z,65.90
2018-08-10T03:52:57.898Z,65.42
2018-08-10T03:57:41.257Z,65.26
2018-08-10T04:02:30.565Z,65.58
2018-08-10T04:07:13.874Z,63.91
2018-08-10T04:11:58.165Z,65.23
2018-08-10T04:16:41.557Z,65.69
2018-08-10T04:21:24.922Z,65.44
2018-08-10T04:26:08.366Z,65.30
2018-08-10T04:30:55.644Z,66.01
2018-08-10T04:35:39.116Z,67.56
2018-08-10T04:40:25.919Z,68.31
2018-08-10T04:45:09.530Z,68.61
2018-08-10T04:49:52.989Z,68.89
2018-08-10T04:54:36.312Z,68.58
2018-08-10T04:59:19.624Z,69.25
2018-08-10T05:04:06.494Z,68.48
2018-08-10T05:08:49.924Z,69.97
2018-08-10T05:13:34.334Z,69.05
2018-08-10T05:18:32.525Z,69.24
2018-08-10T05:23:19.933Z,69.38
2018-08-10T05:28:03.400Z,70.09
2018-08-10T05:32:47.864Z,70.05
2018-08-10T05:37:31.263Z,70.51
2018-08-10T05:42:15.042Z,69.16
2018-08-10T05:46:58.799Z,70.17
2018-08-10T05:51:42.197Z,70.18
2018-08-10T06:01:07.891Z,69.31
2018-08-10T06:05:51.260Z,69.44
2018-08-10T06:10:38.073Z,68.79
2018-08-10T06:15:21.514Z,68.76
2018-08-10T06:20:09.735Z,67.96
2018-08-10T06:24:53.036Z,67.21
2018-08-10T06:29:36.287Z,66.50
2018-08-10T06:34:19.735Z,67.66
2018-08-10T06:39:03.062Z,65.67
2018-08-10T06:43:49.812Z,64.71
2018-08-10T06:48:33.179Z,65.19
2018-08-10T06:53:17.059Z,63.49
2018-08-10T06:58:00.548Z,61.46
2018-08-10T07:02:52.577Z,60.82
2018-08-10T07:07:36.642Z,61.87
2018-08-10T07:12:23.448Z,54.11
2018-08-10T07:18:36.017Z,55.71
2018-08-10T07:23:19.452Z,52.94
2018-08-10T07:28:02.800Z,51.73
2018-08-10T07:32:49.468Z,49.54
2018-08-10T07:37:32.880Z,51.50
2018-08-10T07:42:19.788Z,48.75
2018-08-10T07:47:03.064Z,45.93
2018-08-10T07:51:47.740Z,47.80
2018-08-10T07:56:31.229Z,47.69
2018-08-10T08:01:15.592Z,47.07
2018-08-10T08:05:59.626Z,45.18
2018-08-10T08:10:46.540Z,49.02
2018-08-10T08:15:29.853Z,48.01
2018-08-10T08:20:13.327Z,47.17
2018-08-10T08:24:56.856Z,47.87
2018-08-10T08:29:43.605Z,47.42
2018-08-10T08:34:39.334Z,47.99
2018-08-10T08:39:37.321Z,43.99
2018-08-10T08:44:33.239Z,44.43
2018-08-10T08:49:16.571Z,43.90
2018-08-10T08:54:10.799Z,43.59
2018-08-10T08:58:54.778Z,45.70
2018-08-10T09:04:52.898Z,44.57
2018-08-10T09:09:41.309Z,45.69
2018-08-10T09:14:43.103Z,47.03
2018-08-10T09:19:27.550Z,47.17
2018-08-10T09:24:10.768Z,43.79
2018-08-10T09:28:54.263Z,46.96
2018-08-10T09:33:41.081Z,45.52
2018-08-10T09:38:24.491Z,47.23
2018-08-10T09:43:11.640Z,47.75
2018-08-10T09:47:55.949Z,48.46
2018-08-10T09:52:42.483Z,45.25
2018-08-10T09:57:25.970Z,46.17
2018-08-10T10:02:18.846Z,45.16
2018-08-10T10:07:02.336Z,45.64
2018-08-10T10:11:46.770Z,43.16
2018-08-10T10:16:30.057Z,43.87
2018-08-10T10:21:14.515Z,44.43
2018-08-10T10:25:58.078Z,42.03
2018-08-10T10:30:42.504Z,42.47
2018-08-10T10:35:25.942Z,43.39
2018-08-10T10:40:11.313Z,42.02
2018-08-10T10:44:54.690Z,43.13
2018-08-10T10:49:39.262Z,40.59
2018-08-10T10:54:22.654Z,43.09
2018-08-10T10:59:09.646Z,41.89
2018-08-10T11:03:53.064Z,43.13
2018-08-10T11:08:40.144Z,42.65
2018-08-10T11:13:24.613Z,42.43
2018-08-10T11:18:08.146Z,41.88
2018-08-10T11:22:51.651Z,42.01
2018-08-10T11:27:34.973Z,41.32
2018-08-10T11:32:21.505Z,42.48
2018-08-10T11:37:04.857Z,40.81
2018-08-10T11:41:49.138Z,42.45
2018-08-10T11:46:32.565Z,43.13
2018-08-10T11:51:16.249Z,42.79
2018-08-10T11:55:59.647Z,41.76
2018-08-10T12:00:43.211Z,42.07
2018-08-10T12:05:26.609Z,41.82
2018-08-10T12:10:10.854Z,42.88
2018-08-10T12:14:54.276Z,41.54
2018-08-10T12:19:41.049Z,41.02
2018-08-10T12:24:24.485Z,41.63
2018-08-10T12:29:07.951Z,41.98
2018-08-10T12:33:51.351Z,40.66
2018-08-10T12:38:34.537Z,41.50
2018-08-10T12:43:17.760Z,41.32
2018-08-10T12:48:01.161Z,40.37
2018-08-10T12:52:44.491Z,41.35
2018-08-10T12:57:28.043Z,42.77
2018-08-10T13:02:11.433Z,42.41
2018-08-10T13:06:54.837Z,41.76
2018-08-10T13:11:39.663Z,42.73
2018-08-10T13:16:22.853Z,43.58
2018-08-10T13:21:10.020Z,43.78
2018-08-10T13:25:53.481Z,43.59
2018-08-10T13:30:40.262Z,44.35
2018-08-10T13:35:23.645Z,43.78
2018-08-10T13:40:10.557Z,43.71
2018-08-10T13:44:53.906Z,42.89
2018-08-10T13:49:37.400Z,43.79
2018-08-10T13:54:20.746Z,43.93
2018-08-10T13:59:05.090Z,44.07
2018-08-10T14:03:48.389Z,45.51
2018-08-10T14:08:31.796Z,45.20
2018-08-10T14:13:15.168Z,46.91
2018-08-10T14:17:58.553Z,46.57
2018-08-10T14:22:42.164Z,46.86
2018-08-10T14:27:25.483Z,46.57
2018-08-10T14:32:10.016Z,46.15
2018-08-10T14:36:53.436Z,46.00
2018-08-10T14:41:37.141Z,46.59
2018-08-10T14:46:23.350Z,46.04
2018-08-10T14:51:10.118Z,47.13
2018-08-10T14:55:53.594Z,46.70
2018-08-10T15:00:37.920Z,46.55
2018-08-10T15:05:21.197Z,46.96
2018-08-10T15:10:10.735Z,47.06
2018-08-10T15:14:54.156Z,47.10
2018-08-10T15:19:39.333Z,47.37
2018-08-10T15:24:22.784Z,48.29
2018-08-10T15:29:29.297Z,47.89
2018-08-10T15:34:13.105Z,47.46
2018-08-10T15:38:59.273Z,48.42
2018-08-10T15:43:42.842Z,48.91
2018-08-10T15:48:26.259Z,48.47
2018-08-10T15:53:09.664Z,49.08
2018-08-10T15:57:52.928Z,49.16
2018-08-10T16:02:39.561Z,49.31
2018-08-10T16:07:22.942Z,48.44
2018-08-10T16:12:10.149Z,49.26
2018-08-10T16:16:53.615Z,49.04
2018-08-10T16:21:40.425Z,49.70
2018-08-10T16:26:23.957Z,50.21
2018-08-10T16:31:07.571Z,50.40
2018-08-10T16:35:50.939Z,50.40
2018-08-10T16:40:37.635Z,51.58
2018-08-10T16:45:20.907Z,50.92
2018-08-10T16:50:07.634Z,51.32
2018-08-10T16:54:51.085Z,51.29
2018-08-10T16:59:34.764Z,51.36
2018-08-10T17:04:18.305Z,51.09
2018-08-10T17:09:02.944Z,52.34
2018-08-10T17:13:46.542Z,52.56
2018-08-10T17:18:29.909Z,53.02
2018-08-10T17:23:13.324Z,53.39
2018-08-10T17:27:56.738Z,52.92
2018-08-10T17:32:44.562Z,53.29
2018-08-10T17:37:27.931Z,53.41
2018-08-10T17:42:16.186Z,53.33
2018-08-10T17:47:02.733Z,53.79
2018-08-10T17:51:46.609Z,54.81
2018-08-10T17:56:32.871Z,55.04
2018-08-10T18:01:19.936Z,54.88
2018-08-10T18:06:58.522Z,54.97
2018-08-10T18:11:47.204Z,55.02
2018-08-10T18:16:31.603Z,54.36
2018-08-10T18:21:15.603Z,53.30
2018-08-10T18:25:59.089Z,53.97
2018-08-10T18:31:05.258Z,54.61
2018-08-10T18:35:50.093Z,55.46
2018-08-10T18:40:38.877Z,54.22
2018-08-10T18:45:22.696Z,53.02
2018-08-10T18:50:11.948Z,54.07
2018-08-10T18:54:56.056Z,52.59
2018-08-10T18:59:39.774Z,53.59
2018-08-10T19:04:23.531Z,53.59
2018-08-10T19:09:11.526Z,53.35
2018-08-10T19:13:55.274Z,52.78
2018-08-10T19:18:42.599Z,53.16
2018-08-10T19:24:57.781Z,52.57
2018-08-10T19:29:41.726Z,52.40
2018-08-10T19:34:25.250Z,54.27
2018-08-10T19:39:12.630Z,53.59
2018-08-10T19:43:56.195Z,54.03
2018-08-10T19:48:39.864Z,54.56
2018-08-10T19:53:23.380Z,54.07
2018-08-10T19:58:08.573Z,54.63
2018-08-10T20:02:52.002Z,55.35
2018-08-10T20:07:35.402Z,56.33
2018-08-10T20:12:18.841Z,56.05
2018-08-10T20:17:02.246Z,55.83
2018-08-10T20:21:46.957Z,55.46
2018-08-10T20:26:31.239Z,54.56
2018-08-10T20:31:14.740Z,55.85
2018-08-10T20:35:58.311Z,55.50
2018-08-10T20:40:43.074Z,56.86
2018-08-10T20:45:26.528Z,56.75
2018-08-10T20:50:14.678Z,56.87
2018-08-10T20:54:58.169Z,56.02
2018-08-10T20:59:41.707Z,54.94
2018-08-10T21:04:25.253Z,54.47
2018-08-10T21:09:12.805Z,56.59
2018-08-10T21:13:56.284Z,57.07
2018-08-10T21:18:39.929Z,56.77
2018-08-10T21:23:23.416Z,55.69
2018-08-10T21:28:07.084Z,56.35
2018-08-10T21:32:50.540Z,57.29
2018-08-10T21:37:34.040Z,56.50
2018-08-10T21:42:17.583Z,56.77
2018-08-10T21:47:01.027Z,57.08
2018-08-10T21:51:44.689Z,55.84
2018-08-10T21:56:28.016Z,57.07
2018-08-10T22:01:11.524Z,57.19
2018-08-10T22:05:54.898Z,58.70
2018-08-10T22:10:38.699Z,57.31
2018-08-10T22:15:27.445Z,59.19
2018-08-10T22:20:11.792Z,58.62
2018-08-10T22:24:55.069Z,58.01
2018-08-10T22:29:38.925Z,57.64
2018-08-10T22:34:24.914Z,59.52
2018-08-10T22:39:09.830Z,58.58
2018-08-10T22:43:53.225Z,58.64
2018-08-10T22:48:36.744Z,57.67
2018-08-10T22:53:20.112Z,58.19
2018-08-10T22:58:04.602Z,60.03
2018-08-10T23:02:48.059Z,59.61
2018-08-10T23:07:31.521Z,60.17
2018-08-10T23:12:14.903Z,60.31
2018-08-10T23:16:58.309Z,61.61
2018-08-10T23:21:42.721Z,61.83
2018-08-10T23:26:26.149Z,60.58
2018-08-10T23:31:09.420Z,61.09
2018-08-10T23:35:52.883Z,60.67
2018-08-10T23:40:37.325Z,63.15
2018-08-10T23:45:20.852Z,62.19
2018-08-10T23:50:08.691Z,61.88
2018-08-10T23:54:52.074Z,62.57
2018-08-10T23:59:35.640Z,63.33
